Ferrisburgh, Vermont
Current Conditions -  °F | °C
As of 4:35 AM on Sunday 26 Oct 2014 (Local Time) from K6B0 Reporting Station
Overcast Overcast  
Wind Chill:   Ceiling: 3300
Heat Index:   Visibility: 10mi
Dew Point:   Wind: 0mph
Humidity: 99%   Direction: NA
Pressure: 29.44"   Gusts: NA
Location:  44.2091°N, 73.2784°W
Report Text: K6B0 260835Z AUTO 00000KT 10SM SCT016 BKN033 OVC048 09/09 A2944 RMK AO2 T00910089
Loading
Personal Weather Stations






























Interactive Weather Map
Tropical Storm Tracking
New forecast layout! Learn more

10-Day Weather Forecast

Advertisements
Track Severe Weather on mobile